Time;durP1;ratioP1;P1;durP2;ratioP2;P2;SDS_P1;SDS_P2;PMS_P1;PMS_P2;Temp;Humidity;BMP_temperature;BMP_pressure;BME280_temperature;BME280_humidity;BME280_pressure;Samples;Min_cycle;Max_cycle;Signal;HPM_P1;HPM_P2
2021/01/01 00:01:53;;;;;;;63.45;58.10;;;;;;;10.04;42.80;99421.63;4425729;32;33602;-92
2021/01/01 00:04:22;;;;;;;64.05;58.85;;;;;;;9.97;42.65;99428.78;4412547;32;35566;-92
2021/01/01 00:06:50;;;;;;;63.97;59.08;;;;;;;9.82;43.32;99434.47;4425073;32;33515;-92
2021/01/01 00:09:18;;;;;;;63.10;58.22;;;;;;;10.41;42.01;99432.53;4424468;32;35608;-91
2021/01/01 00:11:50;;;;;;;62.72;57.67;;;;;;;9.93;43.05;99431.53;4399534;32;34038;-91
2021/01/01 00:14:17;;;;;;;63.97;58.95;;;;;;;10.82;40.89;99436.28;4424677;32;33612;-93
2021/01/01 00:16:47;;;;;;;64.18;59.17;;;;;;;9.95;42.47;99435.78;4412557;32;35274;-91
2021/01/01 00:19:14;;;;;;;65.28;59.85;;;;;;;9.89;43.00;99441.19;4424721;32;34661;-92
2021/01/01 00:21:42;;;;;;;64.37;59.28;;;;;;;9.45;43.81;99443.47;4411675;32;34383;-92
2021/01/01 00:24:10;;;;;;;61.75;56.83;;;;;;;8.85;45.56;99444.37;4438562;32;34517;-91
2021/01/01 00:26:38;;;;;;;62.70;57.62;;;;;;;10.69;41.18;99446.28;4413869;32;34350;-92
2021/01/01 00:29:06;;;;;;;63.87;58.72;;;;;;;10.63;40.86;99446.50;4426525;32;34300;-91
2021/01/01 00:31:34;;;;;;;63.08;58.38;;;;;;;10.42;41.59;99447.25;4413753;32;34642;-92
2021/01/01 00:34:01;;;;;;;65.45;60.20;;;;;;;10.50;41.29;99443.50;4426854;32;34458;-93
2021/01/01 00:36:29;;;;;;;63.08;58.00;;;;;;;11.35;39.18;99447.31;4426750;32;33407;-92
2021/01/01 00:38:57;;;;;;;62.58;57.60;;;;;;;10.47;40.84;99447.97;4413746;32;33926;-91
2021/01/01 00:41:27;;;;;;;62.80;57.70;;;;;;;10.45;41.03;99457.56;4413503;32;34341;-92
2021/01/01 00:43:54;;;;;;;61.40;56.67;;;;;;;9.63;42.76;99455.88;4426362;32;35225;-92
2021/01/01 00:46:24;;;;;;;62.67;57.67;;;;;;;9.89;42.50;99464.59;4439030;32;33232;-91
2021/01/01 00:48:51;;;;;;;63.22;58.33;;;;;;;10.11;41.97;99459.53;4426234;32;34509;-91
2021/01/01 00:51:26;;;;;;;62.50;57.60;;;;;;;10.46;41.16;99460.13;4413090;32;33366;-92
2021/01/01 00:53:57;;;;;;;62.90;57.97;;;;;;;11.02;39.95;99458.13;4413918;32;34073;-91
2021/01/01 00:56:26;;;;;;;63.50;58.58;;;;;;;10.77;40.44;99455.56;4426857;32;32744;-91
2021/01/01 00:58:55;;;;;;;62.95;58.15;;;;;;;10.53;40.21;99456.41;4426418;32;34340;-91
2021/01/01 01:01:25;;;;;;;62.40;57.65;;;;;;;10.41;39.69;99459.44;4426820;32;33946;-92
2021/01/01 01:03:55;;;;;;;63.25;58.28;;;;;;;11.07;38.14;99460.56;4413511;32;34306;-91
2021/01/01 01:06:25;;;;;;;62.28;57.67;;;;;;;10.15;40.22;99460.28;4426491;32;34012;-91
2021/01/01 01:08:56;;;;;;;62.45;57.20;;;;;;;9.41;41.88;99466.09;4426447;32;33719;-92
2021/01/01 01:11:28;;;;;;;62.00;57.15;;;;;;;8.93;43.74;99464.91;4426278;32;34460;-91
2021/01/01 01:13:56;;;;;;;62.33;57.60;;;;;;;9.48;42.23;99471.97;4413373;32;35588;-92
2021/01/01 01:16:30;;;;;;;62.20;57.42;;;;;;;9.54;41.91;99474.38;4413801;32;34275;-91
2021/01/01 01:19:00;;;;;;;60.95;56.15;;;;;;;9.89;41.02;99469.81;4426412;32;34782;-92
2021/01/01 01:21:28;;;;;;;62.10;57.50;;;;;;;10.12;40.41;99463.84;4426961;32;33839;-92
2021/01/01 01:23:56;;;;;;;61.42;56.78;;;;;;;10.07;40.60;99464.91;4413808;32;34695;-92
2021/01/01 01:26:24;;;;;;;64.12;58.90;;;;;;;10.40;39.84;99464.69;4428628;32;33906;-92
2021/01/01 01:28:54;;;;;;;62.95;57.62;;;;;;;10.80;38.80;99460.69;4417545;32;34368;-92
2021/01/01 01:31:22;;;;;;;61.55;56.60;;;;;;;10.49;39.21;99465.22;4415463;32;34618;-91
2021/01/01 01:33:50;;;;;;;62.50;57.55;;;;;;;10.80;38.83;99471.94;4442315;32;35175;-90
2021/01/01 01:36:18;;;;;;;62.50;57.65;;;;;;;9.92;40.72;99480.13;4441443;32;35116;-90
2021/01/01 01:38:45;;;;;;;62.75;57.85;;;;;;;10.61;39.21;99482.19;4441882;32;34414;-89
2021/01/01 01:41:14;;;;;;;62.75;58.20;;;;;;;10.61;39.52;99481.31;4439517;32;34280;-90
2021/01/01 01:43:41;;;;;;;62.78;57.95;;;;;;;10.75;39.30;99486.06;4420543;32;34979;-92
2021/01/01 01:46:09;;;;;;;61.83;57.15;;;;;;;9.83;41.27;99490.84;4443331;32;33643;-91
2021/01/01 01:48:38;;;;;;;61.58;57.03;;;;;;;10.01;40.70;99490.25;4427428;32;34063;-92
2021/01/01 01:51:08;;;;;;;62.00;57.20;;;;;;;10.51;39.42;99484.25;4413420;32;34590;-91
2021/01/01 01:53:40;;;;;;;61.35;56.63;;;;;;;10.24;39.98;99488.63;4426256;32;34570;-93
2021/01/01 01:56:10;;;;;;;61.08;56.47;;;;;;;9.26;42.28;99495.19;4413615;32;35021;-92
2021/01/01 01:58:39;;;;;;;62.40;57.70;;;;;;;10.06;40.63;99503.09;4412919;32;35095;-92
2021/01/01 02:01:08;;;;;;;61.63;56.97;;;;;;;10.57;39.60;99493.62;4425547;32;34652;-91
2021/01/01 02:03:37;;;;;;;61.08;56.70;;;;;;;10.03;40.46;99500.59;4425950;32;35023;-92
2021/01/01 02:06:05;;;;;;;61.67;57.00;;;;;;;9.96;40.81;99501.72;4425863;32;33386;-92
2021/01/01 02:08:32;;;;;;;61.72;56.70;;;;;;;10.02;40.60;99509.31;4413060;32;35113;-92
2021/01/01 02:11:02;;;;;;;61.33;56.63;;;;;;;10.01;40.55;99503.25;4438645;32;34714;-91
2021/01/01 02:13:29;;;;;;;60.38;55.85;;;;;;;10.61;39.19;99496.94;4425968;32;33837;-92
2021/01/01 02:15:57;;;;;;;62.05;57.25;;;;;;;10.56;39.27;99497.13;4413094;32;34889;-92
2021/01/01 02:18:42;;;;;;;61.75;57.22;;;;;;;10.60;39.17;99492.66;4427389;32;34389;-92
2021/01/01 02:21:15;;;;;;;60.63;55.92;;;;;;;10.83;38.57;99492.69;4412882;32;35327;-92
2021/01/01 02:23:45;;;;;;;62.05;57.38;;;;;;;10.03;39.70;99503.19;4425988;32;33421;-91
2021/01/01 02:26:13;;;;;;;60.28;55.85;;;;;;;10.40;39.02;99495.94;4425374;32;34012;-91
2021/01/01 02:28:40;;;;;;;60.33;56.03;;;;;;;10.05;40.03;99503.16;4412708;32;33904;-91
2021/01/01 02:31:09;;;;;;;60.60;56.00;;;;;;;10.15;39.73;99499.34;4425778;32;35260;-92
2021/01/01 02:33:36;;;;;;;60.17;55.78;;;;;;;10.54;38.71;99488.50;4412906;32;35201;-93
2021/01/01 02:36:05;;;;;;;59.35;55.05;;;;;;;10.67;38.40;99491.53;4426089;32;33248;-92
2021/01/01 02:38:37;;;;;;;61.83;56.92;;;;;;;10.75;38.33;99494.72;4425528;32;33840;-91
2021/01/01 02:41:05;;;;;;;61.30;56.42;;;;;;;9.80;40.30;99493.53;4412788;32;35090;-92
2021/01/01 02:43:35;;;;;;;60.38;55.78;;;;;;;9.53;40.83;99485.69;4438016;32;34971;-92
2021/01/01 02:46:03;;;;;;;60.45;56.05;;;;;;;9.29;41.36;99495.94;4424960;32;33736;-93
2021/01/01 02:48:31;;;;;;;60.20;55.65;;;;;;;10.14;39.58;99493.28;4412246;32;33127;-92
2021/01/01 02:51:00;;;;;;;60.60;55.97;;;;;;;10.03;40.09;99495.41;4425933;32;34003;-91
2021/01/01 02:53:28;;;;;;;60.20;55.78;;;;;;;10.05;39.88;99496.22;4425513;32;34526;-92
2021/01/01 02:55:57;;;;;;;60.25;55.85;;;;;;;10.26;39.42;99494.62;4425825;32;33842;-92
2021/01/01 02:58:26;;;;;;;60.83;56.30;;;;;;;10.26;39.11;99493.78;4425340;32;34224;-91
2021/01/01 03:00:54;;;;;;;60.22;55.70;;;;;;;9.52;40.40;99492.63;4425418;32;33230;-92
2021/01/01 03:03:21;;;;;;;61.22;56.80;;;;;;;9.73;40.06;99490.25;4412521;32;34662;-92
2021/01/01 03:05:50;;;;;;;59.90;55.22;;;;;;;9.98;39.83;99494.69;4413176;32;34947;-91
2021/01/01 03:08:18;;;;;;;59.53;55.08;;;;;;;10.14;39.22;99495.03;4427027;32;35541;-90
2021/01/01 03:10:45;;;;;;;60.12;55.83;;;;;;;9.99;39.21;99486.81;4428588;32;35509;-91
2021/01/01 03:13:13;;;;;;;60.38;55.83;;;;;;;10.11;38.61;99495.16;4440825;32;33811;-90
2021/01/01 03:15:40;;;;;;;60.17;55.67;;;;;;;9.89;38.96;99481.97;4439789;32;34687;-92
2021/01/01 03:18:09;;;;;;;59.75;55.25;;;;;;;10.27;38.19;99483.31;4438262;32;34458;-91
2021/01/01 03:20:37;;;;;;;61.00;56.40;;;;;;;10.06;38.43;99491.84;4439417;32;35371;-91
2021/01/01 03:23:04;;;;;;;59.75;55.35;;;;;;;9.99;38.56;99484.22;4436028;32;33860;-90
2021/01/01 03:25:32;;;;;;;59.78;55.45;;;;;;;9.55;39.68;99490.84;4436150;32;34117;-91
2021/01/01 03:28:01;;;;;;;57.88;53.42;;;;;;;9.38;40.53;99494.81;4419675;32;34369;-92
2021/01/01 03:30:28;;;;;;;60.22;55.70;;;;;;;9.42;40.55;99490.37;4414069;32;34356;-91
2021/01/01 03:32:56;;;;;;;58.87;54.63;;;;;;;10.08;39.01;99492.63;4412950;32;34213;-92
2021/01/01 03:35:26;;;;;;;58.40;54.00;;;;;;;9.83;39.38;99486.47;4425295;32;34915;-91
2021/01/01 03:37:54;;;;;;;59.08;54.67;;;;;;;9.85;39.37;99487.28;4425680;32;33717;-93
2021/01/01 03:40:22;;;;;;;58.17;54.13;;;;;;;9.75;39.23;99488.47;4425400;32;34110;-92
2021/01/01 03:42:50;;;;;;;59.20;54.72;;;;;;;10.23;38.21;99484.31;4412397;32;34684;-92
2021/01/01 03:45:18;;;;;;;59.40;55.12;;;;;;;9.96;39.00;99491.31;4412187;32;34135;-91
2021/01/01 03:47:46;;;;;;;56.90;52.90;;;;;;;9.73;39.69;99494.62;4412432;32;34196;-91
2021/01/01 03:50:14;;;;;;;59.05;54.53;;;;;;;10.08;39.02;99495.22;4424938;32;35248;-92
2021/01/01 03:52:41;;;;;;;60.38;55.88;;;;;;;9.93;39.31;99494.84;4424954;32;33643;-90
2021/01/01 03:55:09;;;;;;;58.05;53.85;;;;;;;9.83;39.49;99491.66;4412103;32;35054;-91
2021/01/01 03:57:37;;;;;;;59.08;54.88;;;;;;;9.11;40.58;99499.06;4424336;32;33813;-91
2021/01/01 04:00:05;;;;;;;59.90;55.58;;;;;;;9.37;39.54;99503.50;4424505;32;35052;-91
2021/01/01 04:02:38;;;;;;;59.33;54.80;;;;;;;9.26;39.57;99503.81;4426063;32;34796;-91
2021/01/01 04:05:07;;;;;;;58.78;54.40;;;;;;;9.85;38.40;99502.03;4425105;32;34027;-92
2021/01/01 04:07:35;;;;;;;57.15;53.25;;;;;;;9.33;39.36;99505.34;4412106;32;34861;-90
2021/01/01 04:10:03;;;;;;;57.78;53.63;;;;;;;9.57;39.10;99510.69;4424637;32;34100;-90
2021/01/01 04:12:32;;;;;;;56.63;52.67;;;;;;;9.35;39.19;99502.69;4424378;32;35520;-92
2021/01/01 04:15:00;;;;;;;58.38;54.17;;;;;;;9.18;39.84;99509.22;4411855;32;34424;-91
2021/01/01 04:17:27;;;;;;;58.42;54.42;;;;;;;8.98;40.25;99506.37;4411943;32;35502;-90
2021/01/01 04:19:56;;;;;;;58.50;54.30;;;;;;;9.48;38.82;99508.38;4424314;32;34886;-90
2021/01/01 04:22:24;;;;;;;57.10;52.90;;;;;;;9.85;37.99;99505.50;4437039;32;32355;-91
2021/01/01 04:24:51;;;;;;;59.05;54.72;;;;;;;9.27;39.46;99510.72;4411331;32;35086;-91
2021/01/01 04:27:20;;;;;;;57.70;53.78;;;;;;;9.09;39.75;99508.66;4424824;32;33585;-91
2021/01/01 04:29:51;;;;;;;57.50;53.45;;;;;;;9.34;39.07;99508.78;4424506;32;33980;-92
2021/01/01 04:32:19;;;;;;;57.13;53.33;;;;;;;9.49;38.29;99500.53;4411647;32;32911;-92
2021/01/01 04:34:47;;;;;;;56.70;52.72;;;;;;;9.70;37.87;99500.75;4424285;32;34898;-91
2021/01/01 04:37:15;;;;;;;57.42;53.53;;;;;;;9.13;38.67;99510.25;4424200;32;34117;-91
2021/01/01 04:39:43;;;;;;;57.42;53.35;;;;;;;9.64;37.74;99507.03;4417689;32;34453;-90
2021/01/01 04:42:11;;;;;;;57.13;53.22;;;;;;;9.16;38.69;99510.16;4415503;32;34875;-89
2021/01/01 04:44:39;;;;;;;57.03;52.83;;;;;;;9.34;38.46;99514.00;4420666;32;34784;-91
2021/01/01 04:47:07;;;;;;;57.92;53.78;;;;;;;9.41;38.27;99523.31;4435664;32;33761;-91
2021/01/01 04:49:36;;;;;;;55.90;51.83;;;;;;;9.27;38.50;99528.09;4414976;32;34513;-90
2021/01/01 04:52:06;;;;;;;56.47;52.38;;;;;;;9.09;38.77;99530.28;4419725;32;33924;-91
2021/01/01 04:54:35;;;;;;;57.33;53.13;;;;;;;9.47;37.98;99530.94;4413771;32;34080;-92
2021/01/01 04:57:03;;;;;;;57.67;53.58;;;;;;;9.13;38.89;99531.06;4411439;32;34293;-91
2021/01/01 04:59:32;;;;;;;56.47;52.58;;;;;;;8.82;39.44;99529.31;4424395;32;33762;-91
2021/01/01 05:02:00;;;;;;;56.40;52.70;;;;;;;8.19;40.53;99536.97;4424287;32;34006;-91
2021/01/01 05:04:29;;;;;;;58.30;54.00;;;;;;;8.98;38.55;99537.53;4411630;32;34895;-92
2021/01/01 05:06:56;;;;;;;57.88;53.87;;;;;;;8.74;38.91;99537.31;4423809;32;34242;-91
2021/01/01 05:09:25;;;;;;;57.00;52.90;;;;;;;9.49;37.41;99529.16;4423707;32;34497;-90
2021/01/01 05:12:07;;;;;;;56.80;52.80;;;;;;;9.12;37.98;99529.34;4425756;32;35253;-91
2021/01/01 05:14:36;;;;;;;58.42;54.20;;;;;;;8.60;39.01;99537.69;4414105;32;33841;-91
2021/01/01 05:17:05;;;;;;;56.72;52.95;;;;;;;8.63;39.06;99544.56;4426132;32;32909;-90
2021/01/01 05:19:39;;;;;;;58.65;54.45;;;;;;;8.21;40.00;99542.09;4413471;32;35703;-91
2021/01/01 05:22:09;;;;;;;56.85;52.92;;;;;;;8.11;40.20;99537.13;4426061;32;35754;-91
2021/01/01 05:24:39;;;;;;;56.28;52.25;;;;;;;8.38;39.56;99541.69;4426046;32;33601;-91
2021/01/01 05:27:17;;;;;;;58.03;53.97;;;;;;;8.92;38.44;99553.28;4426049;32;34917;-90
2021/01/01 05:29:54;;;;;;;57.92;53.83;;;;;;;8.65;38.70;99551.37;4426258;32;33308;-91
2021/01/01 05:32:28;;;;;;;58.00;53.90;;;;;;;8.97;38.03;99554.88;4425965;32;34376;-91
2021/01/01 05:34:57;;;;;;;57.65;53.70;;;;;;;8.95;38.23;99559.28;4413299;32;33462;-90
2021/01/01 05:37:34;;;;;;;56.80;52.70;;;;;;;9.01;37.95;99553.91;4413410;32;35455;-92
2021/01/01 05:40:06;;;;;;;58.55;54.20;;;;;;;8.98;37.89;99555.72;4425901;32;34439;-91
2021/01/01 05:42:39;;;;;;;57.38;53.38;;;;;;;8.98;37.76;99559.16;4413812;32;34867;-91
2021/01/01 05:45:19;;;;;;;58.00;53.90;;;;;;;8.99;37.61;99560.88;4413717;32;34643;-91
2021/01/01 05:48:07;;;;;;;56.83;52.65;;;;;;;8.76;37.88;99563.25;4413619;32;35441;-90
2021/01/01 05:50:35;;;;;;;57.00;52.85;;;;;;;8.54;38.27;99557.78;4413301;32;35389;-92
2021/01/01 05:53:19;;;;;;;56.35;52.45;;;;;;;8.46;38.22;99555.38;4438841;32;33713;-92
2021/01/01 05:55:48;;;;;;;57.10;53.17;;;;;;;8.36;38.24;99555.56;4413391;32;34297;-91
2021/01/01 05:58:24;;;;;;;55.80;51.97;;;;;;;7.95;39.19;99556.53;4426158;32;33424;-92
2021/01/01 06:00:58;;;;;;;57.35;53.47;;;;;;;8.40;38.34;99563.25;4426206;32;33712;-91
2021/01/01 06:03:34;;;;;;;56.83;52.92;;;;;;;8.70;37.75;99564.25;4427317;32;34857;-90
2021/01/01 06:06:06;;;;;;;56.22;52.33;;;;;;;8.45;38.41;99562.28;4425938;32;34460;-91
2021/01/01 06:08:35;;;;;;;56.75;52.70;;;;;;;8.51;37.99;99564.72;4426739;32;33854;-91
2021/01/01 06:11:07;;;;;;;57.33;53.45;;;;;;;8.53;38.03;99572.47;4432783;32;34252;-89
2021/01/01 06:13:36;;;;;;;57.45;53.22;;;;;;;8.32;38.44;99576.44;4441542;32;35302;-90
2021/01/01 06:16:04;;;;;;;58.15;53.95;;;;;;;8.09;39.01;99575.22;4441484;32;34661;-90
2021/01/01 06:18:34;;;;;;;57.17;53.33;;;;;;;7.77;39.43;99581.16;4424262;32;32618;-91
2021/01/01 06:21:07;;;;;;;56.75;52.60;;;;;;;7.78;39.67;99578.53;4442213;32;34686;-91
2021/01/01 06:23:36;;;;;;;55.95;52.13;;;;;;;7.40;40.21;99580.19;4429442;32;35060;-91
2021/01/01 06:26:06;;;;;;;57.47;53.47;;;;;;;7.49;39.85;99581.75;4428967;32;34407;-91
2021/01/01 06:28:52;;;;;;;56.67;52.75;;;;;;;7.61;39.44;99585.81;4441228;32;33958;-92
2021/01/01 06:31:20;;;;;;;55.65;51.88;;;;;;;7.62;39.26;99590.97;4428181;32;34631;-91
2021/01/01 06:33:48;;;;;;;56.28;52.38;;;;;;;7.84;38.81;99598.28;4413065;32;34232;-91
2021/01/01 06:36:37;;;;;;;56.58;52.67;;;;;;;8.08;38.03;99598.63;4425784;32;35072;-91
2021/01/01 06:39:05;;;;;;;57.13;53.13;;;;;;;8.02;38.39;99600.47;4438152;32;33820;-90
2021/01/01 06:41:46;;;;;;;56.13;52.45;;;;;;;8.32;37.54;99597.19;4413952;32;34546;-91
2021/01/01 06:44:40;;;;;;;56.53;52.58;;;;;;;7.73;38.97;99601.12;4425559;32;34974;-90
2021/01/01 06:47:40;;;;;;;55.97;52.20;;;;;;;8.31;37.62;99598.06;4425868;32;34283;-90
2021/01/01 06:50:27;;;;;;;56.80;52.72;;;;;;;8.10;38.06;99612.44;4431053;32;33996;-91
2021/01/01 06:53:04;;;;;;;56.97;52.97;;;;;;;8.56;37.24;99607.91;4435561;32;34300;-91
2021/01/01 06:56:07;;;;;;;55.90;52.00;;;;;;;8.09;37.53;99615.91;4443558;32;33322;-91
2021/01/01 06:58:36;;;;;;;56.20;52.35;;;;;;;8.16;37.18;99617.47;4427234;32;34381;-91
2021/01/01 07:01:17;;;;;;;57.22;53.20;;;;;;;8.46;36.81;99623.72;4425839;32;34293;-92
2021/01/01 07:03:45;;;;;;;56.58;52.60;;;;;;;8.15;37.79;99627.00;4425339;32;34628;-91
2021/01/01 07:06:15;;;;;;;56.85;52.53;;;;;;;7.86;38.23;99631.09;4412991;32;34254;-91
2021/01/01 07:08:44;;;;;;;57.60;53.55;;;;;;;7.59;39.22;99632.53;4425424;32;34007;-91
2021/01/01 07:11:19;;;;;;;56.35;52.45;;;;;;;7.95;38.49;99632.66;4425716;32;33683;-91
2021/01/01 07:13:54;;;;;;;55.67;51.58;;;;;;;8.71;36.97;99636.09;4437915;32;33917;-90
2021/01/01 07:16:24;;;;;;;55.33;51.45;;;;;;;8.79;36.17;99631.56;4425511;32;34129;-91
2021/01/01 07:18:53;;;;;;;57.50;53.47;;;;;;;8.80;36.34;99635.00;4412742;32;35335;-91
2021/01/01 07:21:21;;;;;;;57.17;53.10;;;;;;;8.00;38.04;99630.81;4425302;32;32865;-90
2021/01/01 07:23:49;;;;;;;56.58;52.50;;;;;;;8.08;38.40;99638.41;4412721;32;34877;-92
2021/01/01 07:26:17;;;;;;;57.45;53.22;;;;;;;7.87;39.47;99637.16;4425424;32;34349;-91
2021/01/01 07:28:46;;;;;;;58.33;54.08;;;;;;;8.60;37.98;99633.78;4412361;32;33804;-90
2021/01/01 07:31:16;;;;;;;58.60;54.13;;;;;;;8.49;38.45;99631.41;4425179;32;33940;-92
2021/01/01 07:33:45;;;;;;;58.00;53.80;;;;;;;8.60;38.39;99641.56;4411507;32;35229;-90
2021/01/01 07:36:13;;;;;;;60.35;55.58;;;;;;;8.34;38.94;99640.41;4412345;32;33931;-91
2021/01/01 07:38:45;;;;;;;58.85;54.72;;;;;;;8.23;39.49;99646.72;4412859;32;33734;-91
2021/01/01 07:41:14;;;;;;;;;;;;;;;8.56;38.78;99636.47;4432238;32;34139;-89
2021/01/01 07:43:43;;;;;;;57.78;53.65;;;;;;;8.93;38.24;99644.19;4428537;32;34229;-90
2021/01/01 07:46:10;;;;;;;59.08;54.55;;;;;;;9.11;37.88;99642.87;4427631;32;35146;-90
2021/01/01 07:48:39;;;;;;;59.25;54.63;;;;;;;9.36;38.12;99648.25;4437434;32;33360;-91
2021/01/01 07:51:08;;;;;;;60.33;55.40;;;;;;;9.14;38.60;99645.38;4428525;32;35511;-91
2021/01/01 07:53:37;;;;;;;59.88;55.33;;;;;;;8.67;40.01;99648.31;4416291;32;35203;-92
2021/01/01 07:56:08;;;;;;;60.70;55.92;;;;;;;8.74;40.33;99646.41;4414464;32;34190;-91
2021/01/01 07:58:37;;;;;;;60.67;56.03;;;;;;;8.57;40.91;99648.56;4425009;32;35007;-92
2021/01/01 08:01:07;;;;;;;61.92;56.95;;;;;;;9.14;39.89;99654.94;4412301;32;34182;-90
2021/01/01 08:03:39;;;;;;;77.25;55.92;;;;;;;8.26;42.23;99657.06;4399446;32;34269;-90
2021/01/01 08:06:08;;;;;;;103.38;60.38;;;;;;;8.46;42.49;99669.59;4425130;32;34221;-91
2021/01/01 08:08:38;;;;;;;64.37;57.70;;;;;;;9.15;41.07;99665.28;4425279;32;33169;-91
2021/01/01 08:11:06;;;;;;;68.32;58.22;;;;;;;9.12;41.62;99665.37;4412108;32;34194;-91
2021/01/01 08:13:34;;;;;;;63.33;56.97;;;;;;;9.21;41.48;99666.88;4424603;32;34369;-92
2021/01/01 08:16:16;;;;;;;65.45;58.58;;;;;;;9.29;41.27;99672.75;4411935;32;34161;-92
2021/01/01 08:18:44;;;;;;;64.00;58.42;;;;;;;9.08;41.84;99665.47;4412001;32;34130;-91
2021/01/01 08:21:12;;;;;;;63.50;57.97;;;;;;;9.06;42.19;99668.13;4424794;32;33729;-91
2021/01/01 08:23:57;;;;;;;;;;;;;;;8.86;42.37;99668.63;4413272;32;34639;-91
2021/01/01 08:26:26;;;;;;;61.58;56.85;;;;;;;9.41;41.41;99681.09;4412076;32;33849;-91
2021/01/01 08:28:56;;;;;;;63.97;58.83;;;;;;;9.76;40.47;99677.50;4424358;32;34701;-91
2021/01/01 08:31:24;;;;;;;64.97;59.67;;;;;;;9.88;40.20;99684.12;4424861;32;33339;-91
2021/01/01 08:33:54;;;;;;;63.58;58.33;;;;;;;9.59;41.19;99690.16;4424908;32;34524;-92
2021/01/01 08:36:33;;;;;;;65.43;59.38;;;;;;;9.68;40.98;99693.34;4424867;32;33520;-90
2021/01/01 08:39:24;;;;;;;66.43;60.28;;;;;;;9.94;40.43;99691.72;4424160;32;33022;-91
2021/01/01 08:41:51;;;;;;;65.85;60.15;;;;;;;10.10;40.17;99689.53;4424569;32;33093;-91
2021/01/01 08:44:24;;;;;;;65.35;59.13;;;;;;;9.68;41.32;99695.94;4412258;32;34355;-92
2021/01/01 08:46:58;;;;;;;66.95;61.15;;;;;;;9.61;41.80;99699.62;4413980;32;34327;-91
2021/01/01 08:49:32;;;;;;;66.50;60.60;;;;;;;10.34;39.95;99700.09;4426388;32;34869;-92
2021/01/01 08:52:09;;;;;;;65.60;59.92;;;;;;;10.18;40.30;99697.09;4413766;32;34217;-91
2021/01/01 08:54:44;;;;;;;66.75;61.03;;;;;;;10.23;40.36;99695.22;4426705;32;34388;-92
2021/01/01 08:57:12;;;;;;;67.57;61.67;;;;;;;10.39;40.26;99700.84;4426614;32;34599;-91
2021/01/01 08:59:57;;;;;;;65.45;60.15;;;;;;;10.22;41.00;99709.13;4401838;32;34381;-92
2021/01/01 09:02:29;;;;;;;66.00;60.50;;;;;;;10.67;40.50;99705.19;4413846;32;35712;-90
2021/01/01 09:04:58;;;;;;;63.70;58.80;;;;;;;10.38;41.22;99706.09;4413942;32;34419;-91
2021/01/01 09:07:25;;;;;;;65.25;60.03;;;;;;;9.71;43.48;99708.00;4413647;32;34456;-92
2021/01/01 09:09:53;;;;;;;63.92;58.67;;;;;;;8.35;47.75;99716.56;4426518;32;34060;-91
2021/01/01 09:12:22;;;;;;;62.62;57.88;;;;;;;9.39;45.61;99709.72;4426128;32;34220;-91
2021/01/01 09:14:52;;;;;;;63.33;58.42;;;;;;;8.35;48.63;99717.41;4413739;32;34376;-92
2021/01/01 09:17:23;;;;;;;64.47;59.53;;;;;;;10.49;43.13;99707.47;4427318;32;35271;-92
2021/01/01 09:20:08;;;;;;;62.30;57.60;;;;;;;11.20;41.19;99719.97;4415665;32;34740;-92
2021/01/01 09:22:38;;;;;;;62.78;58.22;;;;;;;10.60;43.24;99720.16;4438142;32;32953;-91
2021/01/01 09:25:23;;;;;;;62.35;57.75;;;;;;;9.43;46.04;99711.34;4425754;32;34307;-92
2021/01/01 09:27:52;;;;;;;61.42;56.83;;;;;;;10.50;43.82;99710.94;4440696;32;35111;-90
2021/01/01 09:30:22;;;;;;;60.67;56.33;;;;;;;11.14;42.24;99704.53;4435782;32;33762;-92
2021/01/01 09:32:55;;;;;;;60.72;56.33;;;;;;;11.46;41.72;99707.78;4419590;32;34422;-92
2021/01/01 09:35:26;;;;;;;59.47;55.15;;;;;;;9.45;47.04;99709.59;4429902;32;33979;-91
2021/01/01 09:37:56;;;;;;;58.60;54.50;;;;;;;9.59;47.41;99705.75;4425998;32;34386;-92
2021/01/01 09:40:27;;;;;;;59.33;55.08;;;;;;;10.11;45.72;99714.66;4426634;32;33747;-91
2021/01/01 09:43:00;;;;;;;60.83;56.42;;;;;;;10.00;46.49;99706.31;4426673;32;33601;-94
2021/01/01 09:45:29;;;;;;;59.20;55.08;;;;;;;9.69;46.80;99712.37;4426049;32;35268;-91
2021/01/01 09:47:57;;;;;;;57.55;53.45;;;;;;;9.86;47.17;99704.09;4413826;32;34094;-93
2021/01/01 09:50:25;;;;;;;57.88;53.87;;;;;;;9.08;48.97;99707.06;4426411;32;32965;-91
2021/01/01 09:52:54;;;;;;;60.78;56.35;;;;;;;9.84;47.39;99711.13;4426043;32;34374;-91
2021/01/01 09:55:22;;;;;;;59.35;54.97;;;;;;;10.09;47.11;99708.66;4438640;32;34300;-91
2021/01/01 09:57:50;;;;;;;59.08;54.47;;;;;;;9.79;47.39;99698.22;4413007;32;34493;-90
2021/01/01 10:00:19;;;;;;;58.78;54.63;;;;;;;9.96;47.24;99700.34;4425710;32;33631;-91
2021/01/01 10:02:47;;;;;;;60.05;55.70;;;;;;;10.66;45.65;99696.53;4425832;32;35175;-91
2021/01/01 10:05:15;;;;;;;58.75;54.75;;;;;;;10.29;46.30;99696.78;4425831;32;34423;-92
2021/01/01 10:07:42;;;;;;;59.03;54.92;;;;;;;10.59;45.48;99695.00;4413117;32;34476;-91
2021/01/01 10:10:11;;;;;;;59.03;54.78;;;;;;;10.74;44.80;99692.81;4413222;32;33704;-91
2021/01/01 10:12:38;;;;;;;59.03;55.03;;;;;;;10.53;45.33;99695.22;4425629;32;34262;-91
2021/01/01 10:15:06;;;;;;;61.47;56.70;;;;;;;10.58;45.34;99697.66;4413040;32;34239;-91
2021/01/01 10:17:35;;;;;;;60.63;56.25;;;;;;;9.39;48.93;99698.47;4413449;32;34214;-90
2021/01/01 10:20:03;;;;;;;59.50;55.17;;;;;;;9.77;47.74;99692.22;4413204;32;34761;-91
2021/01/01 10:22:31;;;;;;;58.87;54.55;;;;;;;10.36;46.42;99693.97;4438324;32;34776;-93
2021/01/01 10:24:59;;;;;;;60.08;55.72;;;;;;;11.27;43.81;99697.97;4432385;32;34787;-91
2021/01/01 10:27:27;;;;;;;59.60;55.50;;;;;;;11.17;44.50;99688.78;4438924;32;34599;-91
2021/01/01 10:29:55;;;;;;;59.97;55.42;;;;;;;11.81;42.94;99683.03;4420156;32;35052;-91
2021/01/01 10:32:24;;;;;;;59.75;55.55;;;;;;;11.22;44.11;99691.22;4429944;32;34930;-91
2021/01/01 10:34:51;;;;;;;57.97;53.87;;;;;;;10.85;45.22;99680.31;4414236;32;34411;-92
2021/01/01 10:37:19;;;;;;;58.53;54.33;;;;;;;10.69;45.00;99682.56;4412920;32;33912;-92
2021/01/01 10:39:48;;;;;;;58.67;54.28;;;;;;;10.69;45.29;99682.56;4425808;32;33784;-91
2021/01/01 10:42:16;;;;;;;58.60;54.30;;;;;;;10.65;45.67;99687.00;4413146;32;35237;-91
2021/01/01 10:44:44;;;;;;;57.72;53.92;;;;;;;11.75;42.88;99685.00;4412913;32;36719;-92
2021/01/01 10:47:12;;;;;;;57.22;53.28;;;;;;;11.23;44.25;99678.12;4425886;32;34091;-91
2021/01/01 10:49:45;;;;;;;57.25;53.30;;;;;;;10.45;46.21;99681.56;4413937;32;34231;-91
2021/01/01 10:52:13;;;;;;;55.70;52.00;;;;;;;10.69;45.32;99675.56;4425390;32;34141;-92
2021/01/01 10:54:41;;;;;;;57.25;53.45;;;;;;;12.01;41.90;99669.25;4425743;32;33886;-91
2021/01/01 10:57:12;;;;;;;55.60;51.70;;;;;;;11.43;43.61;99677.44;4413089;32;34338;-91
2021/01/01 10:59:40;;;;;;;57.47;53.67;;;;;;;11.12;44.05;99681.13;4413347;32;34059;-92
2021/01/01 11:02:08;;;;;;;56.83;53.17;;;;;;;12.02;42.18;99676.19;4414585;32;35263;-90
2021/01/01 11:04:35;;;;;;;55.12;51.63;;;;;;;11.60;42.50;99671.63;4432951;32;35152;-91
2021/01/01 11:07:03;;;;;;;56.08;52.38;;;;;;;11.67;42.19;99661.81;4423131;32;34783;-91
2021/01/01 11:09:30;;;;;;;57.33;53.42;;;;;;;12.19;41.33;99659.00;4437669;32;33756;-90
2021/01/01 11:11:58;;;;;;;56.85;53.03;;;;;;;10.43;45.73;99665.16;4435276;32;33860;-90
2021/01/01 12:26:36;;;;;;;56.85;52.95;;;;;;;11.63;43.75;99658.47;4407712;32;33939;-91
2021/01/01 12:29:04;;;;;;;55.88;52.25;;;;;;;11.76;43.57;99658.00;4414188;32;34494;-92
2021/01/01 12:31:32;;;;;;;56.33;52.67;;;;;;;11.63;43.26;99665.44;4426524;32;34164;-91
2021/01/01 12:34:00;;;;;;;56.33;52.67;;;;;;;12.17;41.79;99659.06;4414165;32;35113;-90
2021/01/01 12:36:28;;;;;;;55.78;52.17;;;;;;;12.57;41.59;99659.25;4439199;32;33249;-91
2021/01/01 12:38:55;;;;;;;57.25;53.30;;;;;;;11.87;43.14;99655.84;4426588;32;33706;-90
2021/01/01 12:41:23;;;;;;;57.50;53.30;;;;;;;11.45;43.86;99664.34;4429483;32;35075;-90
2021/01/01 12:43:50;;;;;;;56.42;52.53;;;;;;;11.94;43.18;99669.50;4442699;32;33981;-90
2021/01/01 12:46:18;;;;;;;56.70;52.80;;;;;;;12.43;41.73;99665.06;4429876;32;34919;-90
2021/01/01 12:48:46;;;;;;;56.13;52.53;;;;;;;12.79;40.89;99671.44;4442956;32;34772;-90